Time;durP1;ratioP1;P1;durP2;ratioP2;P2;SDS_P1;SDS_P2;PMS_P1;PMS_P2;Temp;Humidity;BMP_temperature;BMP_pressure;BME280_temperature;BME280_humidity;BME280_pressure;Samples;Min_cycle;Max_cycle;Signal;HPM_P1;HPM_P2
2023/04/19 04:04:53;;;;;;;4.72;4.32;;;9.40;99.90;;;;;;5647696;23;20307;-64
2023/04/19 04:07:20;;;;;;;7.07;5.20;;;9.30;99.90;;;;;;4957656;29;20589;-63
2023/04/19 04:09:46;;;;;;;4.43;3.67;;;9.30;99.90;;;;;;4957683;29;20177;-64
2023/04/19 04:12:12;;;;;;;4.97;4.10;;;9.30;99.90;;;;;;4957924;29;20212;-64
2023/04/19 04:14:37;;;;;;;5.03;4.33;;;9.20;99.90;;;;;;4957157;29;20243;-65
2023/04/19 04:17:03;;;;;;;5.63;5.10;;;9.20;99.90;;;;;;4956257;29;20173;-64
2023/04/19 04:19:29;;;;;;;4.03;3.47;;;9.30;99.90;;;;;;4957323;29;20722;-64
2023/04/19 04:21:54;;;;;;;4.43;4.00;;;9.30;99.90;;;;;;4957834;29;20204;-64
2023/04/19 04:24:21;;;;;;;7.90;5.63;;;9.30;99.90;;;;;;4957186;29;20196;-64
2023/04/19 04:26:48;;;;;;;4.32;3.95;;;9.30;99.90;;;;;;4957620;29;20191;-64
2023/04/19 04:29:15;;;;;;;5.85;5.03;;;9.30;99.90;;;;;;4957667;29;20526;-64
2023/04/19 04:31:41;;;;;;;5.72;5.18;;;9.30;99.90;;;;;;4957458;29;20179;-64
2023/04/19 04:34:08;;;;;;;8.10;4.70;;;9.30;99.90;;;;;;4956690;29;20574;-64
2023/04/19 04:36:35;;;;;;;6.10;3.67;;;9.30;99.90;;;;;;4956970;29;20179;-65
2023/04/19 04:39:01;;;;;;;6.25;5.55;;;9.30;99.90;;;;;;4957400;29;20210;-64
2023/04/19 04:41:30;;;;;;;5.18;4.65;;;9.20;99.90;;;;;;4957422;29;20504;-64
2023/04/19 04:43:57;;;;;;;7.57;3.70;;;9.20;99.90;;;;;;4956939;29;20169;-64
2023/04/19 04:46:23;;;;;;;5.35;4.65;;;9.20;99.90;;;;;;4957241;29;20208;-64
2023/04/19 04:48:48;;;;;;;7.22;5.80;;;9.30;99.90;;;;;;4944827;29;20225;-65
2023/04/19 04:51:14;;;;;;;6.50;3.57;;;9.30;99.90;;;;;;4937713;29;20186;-64
2023/04/19 04:53:39;;;;;;;3.80;3.40;;;9.30;99.90;;;;;;4937608;29;20292;-64
2023/04/19 04:56:05;;;;;;;4.13;3.83;;;9.20;99.90;;;;;;4937532;29;20225;-64
2023/04/19 04:58:31;;;;;;;5.67;4.53;;;9.30;99.90;;;;;;4944648;29;20169;-64
2023/04/19 05:00:56;;;;;;;5.60;4.57;;;9.30;99.90;;;;;;4956071;29;20642;-64
2023/04/19 05:03:22;;;;;;;3.43;3.10;;;9.30;99.90;;;;;;4955831;29;20264;-65
2023/04/19 05:05:47;;;;;;;4.80;3.97;;;9.30;99.90;;;;;;4955869;29;20273;-64
2023/04/19 05:08:13;;;;;;;5.40;4.90;;;9.30;99.90;;;;;;4956149;29;20169;-64
2023/04/19 05:10:39;;;;;;;6.73;5.63;;;9.30;99.90;;;;;;4956991;29;20205;-62
2023/04/19 05:13:05;;;;;;;6.88;4.88;;;9.30;99.90;;;;;;4956125;29;20181;-64
2023/04/19 05:15:30;;;;;;;5.00;4.57;;;9.30;99.90;;;;;;4956179;29;20551;-63
2023/04/19 05:17:56;;;;;;;5.53;4.07;;;9.30;99.90;;;;;;4956098;29;20183;-65
2023/04/19 05:20:21;;;;;;;5.73;4.47;;;9.30;99.90;;;;;;4956797;29;20662;-64
2023/04/19 05:22:47;;;;;;;5.53;4.10;;;9.40;99.90;;;;;;4950463;29;20177;-64
2023/04/19 05:25:13;;;;;;;5.30;4.30;;;9.40;99.90;;;;;;4970553;28;20203;-64
2023/04/19 05:27:38;;;;;;;5.53;4.90;;;9.50;99.90;;;;;;4973328;28;20176;-62
2023/04/19 05:30:05;;;;;;;4.97;4.40;;;9.50;99.90;;;;;;4955967;29;20654;-67
2023/04/19 05:32:31;;;;;;;7.03;4.80;;;9.60;99.90;;;;;;4956211;29;20204;-62
2023/04/19 05:34:57;;;;;;;6.00;5.50;;;9.70;99.90;;;;;;4938315;29;20714;-64
2023/04/19 05:37:25;;;;;;;8.87;4.20;;;9.70;99.90;;;;;;4955530;29;20189;-64
2023/04/19 05:39:50;;;;;;;6.03;5.00;;;9.70;99.90;;;;;;4958023;28;20182;-64
2023/04/19 05:42:16;;;;;;;6.00;4.90;;;9.80;99.90;;;;;;4975351;28;20176;-64
2023/04/19 05:44:42;;;;;;;5.33;4.80;;;9.80;99.90;;;;;;4974811;28;20206;-66
2023/04/19 05:47:07;;;;;;;6.53;4.97;;;9.80;99.90;;;;;;4963904;28;20603;-65
2023/04/19 05:49:33;;;;;;;5.90;4.43;;;9.80;99.90;;;;;;4938208;29;20180;-62
2023/04/19 05:51:59;;;;;;;5.10;4.68;;;9.90;99.90;;;;;;4955606;29;20185;-63
2023/04/19 05:54:26;;;;;;;8.57;4.13;;;10.00;99.90;;;;;;4955170;29;20741;-63
2023/04/19 05:56:52;;;;;;;6.47;4.82;;;10.00;99.90;;;;;;4955259;29;20208;-63
2023/04/19 05:59:17;;;;;;;7.70;5.17;;;10.00;99.90;;;;;;4955641;29;20212;-64
2023/04/19 06:01:43;;;;;;;5.43;4.20;;;10.00;99.90;;;;;;4955402;29;20177;-63
2023/04/19 06:04:08;;;;;;;4.40;4.00;;;10.10;99.90;;;;;;4954928;29;20671;-63
2023/04/19 06:06:34;;;;;;;5.77;3.80;;;10.20;99.90;;;;;;4955592;29;20643;-63
2023/04/19 06:09:00;;;;;;;4.00;3.27;;;10.20;99.90;;;;;;4955304;28;20555;-64
2023/04/19 06:11:25;;;;;;;7.20;3.50;;;10.30;99.90;;;;;;4950080;29;20232;-63
2023/04/19 06:13:51;;;;;;;6.47;5.10;;;10.40;99.90;;;;;;4946715;29;20411;-63
2023/04/19 06:16:16;;;;;;;6.47;4.17;;;10.60;99.90;;;;;;4946126;29;20244;-63
2023/04/19 06:18:42;;;;;;;4.67;4.13;;;10.70;99.90;;;;;;4949551;29;20188;-63
2023/04/19 06:21:08;;;;;;;5.10;4.33;;;10.80;99.90;;;;;;4941816;29;20655;-63
2023/04/19 06:23:33;;;;;;;6.80;3.60;;;10.80;99.90;;;;;;4939714;29;20245;-64
2023/04/19 06:25:59;;;;;;;6.30;4.30;;;10.90;99.90;;;;;;4955179;28;20206;-64
2023/04/19 06:28:24;;;;;;;3.50;3.20;;;11.10;99.90;;;;;;4954949;29;20188;-63
2023/04/19 06:30:50;;;;;;;5.00;3.57;;;11.30;99.90;;;;;;4955319;29;20187;-63
2023/04/19 06:33:16;;;;;;;3.60;3.30;;;11.30;99.90;;;;;;4954166;29;20657;-64
2023/04/19 06:35:41;;;;;;;5.70;4.40;;;11.30;99.90;;;;;;4955042;29;20258;-64
2023/04/19 06:38:07;;;;;;;5.30;4.80;;;11.30;99.90;;;;;;4955091;29;20258;-63
2023/04/19 06:40:33;;;;;;;5.90;4.60;;;11.30;99.90;;;;;;4955122;29;20179;-64
2023/04/19 06:42:58;;;;;;;4.03;3.70;;;11.40;99.90;;;;;;4955115;29;20190;-63
2023/04/19 06:45:24;;;;;;;4.50;4.10;;;11.40;99.90;;;;;;4954877;29;20437;-64
2023/04/19 06:47:50;;;;;;;5.17;3.90;;;11.50;99.90;;;;;;4955147;29;20183;-63
2023/04/19 06:50:16;;;;;;;3.37;3.07;;;11.70;99.90;;;;;;4937989;29;20567;-64
2023/04/19 06:52:41;;;;;;;3.00;2.77;;;11.80;99.90;;;;;;4955367;29;20191;-63
2023/04/19 06:55:08;;;;;;;4.70;3.57;;;11.90;99.90;;;;;;4954431;29;20259;-63
2023/04/19 06:57:33;;;;;;;5.50;4.80;;;12.10;99.90;;;;;;4955279;29;20243;-63
2023/04/19 06:59:59;;;;;;;4.30;3.83;;;12.40;99.90;;;;;;4954483;29;20869;-63
2023/04/19 07:02:25;;;;;;;4.90;4.50;;;12.50;99.90;;;;;;4955188;29;20180;-64
2023/04/19 07:04:50;;;;;;;3.80;3.37;;;12.60;99.90;;;;;;4954909;29;20196;-63
2023/04/19 07:07:16;;;;;;;5.30;4.07;;;12.90;99.90;;;;;;4937985;29;20204;-63
2023/04/19 07:09:42;;;;;;;5.43;4.70;;;13.30;99.90;;;;;;4939324;29;20192;-64
2023/04/19 07:12:07;;;;;;;5.87;4.70;;;13.60;99.90;;;;;;4957405;29;20255;-64
2023/04/19 07:14:33;;;;;;;5.20;3.87;;;14.40;99.90;;;;;;4955874;29;20212;-65
2023/04/19 07:16:59;;;;;;;3.40;3.10;;;15.00;99.90;;;;;;4962108;28;20215;-64
2023/04/19 07:19:25;;;;;;;4.97;4.50;;;15.50;99.90;;;;;;4956463;28;20263;-64
2023/04/19 07:21:50;;;;;;;5.60;4.03;;;15.70;99.90;;;;;;4956971;28;20448;-63
2023/04/19 07:24:16;;;;;;;4.80;4.40;;;15.80;99.90;;;;;;4957994;29;20205;-64
2023/04/19 07:26:42;;;;;;;5.33;3.33;;;15.60;99.90;;;;;;4958718;29;20184;-64
2023/04/19 07:29:08;;;;;;;3.67;3.37;;;15.40;99.90;;;;;;4941178;29;20192;-64
2023/04/19 07:31:33;;;;;;;5.60;4.67;;;15.20;99.90;;;;;;4958694;29;20418;-64
2023/04/19 07:33:59;;;;;;;9.37;4.20;;;15.30;99.90;;;;;;4958008;29;20737;-66
2023/04/19 07:36:25;;;;;;;6.00;4.20;;;15.50;99.90;;;;;;4958609;29;20176;-64
2023/04/19 07:38:51;;;;;;;4.77;4.10;;;15.70;99.90;;;;;;4957676;29;20791;-65
2023/04/19 07:41:17;;;;;;;5.40;4.30;;;15.70;99.90;;;;;;4940674;29;20753;-65
2023/04/19 07:43:42;;;;;;;3.57;3.23;;;15.50;99.60;;;;;;4957688;29;20192;-64
2023/04/19 07:46:09;;;;;;;5.03;3.87;;;15.30;99.80;;;;;;4958540;29;20203;-71
2023/04/19 07:48:35;;;;;;;4.57;4.10;;;15.50;99.90;;;;;;4958340;29;20177;-71
2023/04/19 07:51:11;;;;;;;4.00;3.60;;;15.60;99.50;;;;;;4958193;29;20416;-71
2023/04/19 07:53:38;;;;;;;4.43;3.80;;;15.80;99.20;;;;;;4957332;29;20442;-70
2023/04/19 07:56:05;;;;;;;4.90;4.03;;;15.90;99.20;;;;;;4958008;29;20434;-69
2023/04/19 07:58:31;;;;;;;4.53;3.70;;;16.00;98.50;;;;;;4958100;29;20419;-70
2023/04/19 08:00:57;;;;;;;3.97;3.50;;;16.10;98.30;;;;;;4957431;29;20802;-69
2023/04/19 08:03:22;;;;;;;3.40;3.10;;;16.40;98.00;;;;;;4939727;29;20188;-69
2023/04/19 08:05:48;;;;;;;4.20;2.90;;;16.70;97.80;;;;;;4957454;29;20221;-69
2023/04/19 08:08:13;;;;;;;3.93;3.53;;;17.00;97.10;;;;;;4940416;29;20189;-69
2023/04/19 08:10:39;;;;;;;3.40;3.10;;;17.20;96.60;;;;;;4957734;29;20180;-69
2023/04/19 08:13:05;;;;;;;3.30;3.00;;;17.50;96.40;;;;;;4957551;29;20173;-68
2023/04/19 08:15:32;;;;;;;4.60;3.20;;;17.80;95.30;;;;;;4957620;29;20236;-65
2023/04/19 08:17:58;;;;;;;4.00;2.87;;;17.30;95.30;;;;;;4965575;28;20185;-65
2023/04/19 08:20:24;;;;;;;3.50;3.20;;;16.80;95.70;;;;;;4957021;29;20451;-63
2023/04/19 08:22:50;;;;;;;5.23;2.97;;;16.40;96.10;;;;;;4957463;29;20172;-64
2023/04/19 08:25:15;;;;;;;4.00;3.13;;;16.00;96.40;;;;;;4956898;29;20780;-64
2023/04/19 08:27:41;;;;;;;5.63;4.83;;;15.70;96.90;;;;;;4957704;29;20275;-63
2023/04/19 08:30:08;;;;;;;4.07;3.67;;;15.30;97.30;;;;;;4957759;29;20189;-64
2023/04/19 08:32:33;;;;;;;3.60;3.27;;;14.80;97.90;;;;;;4956497;28;20190;-64
2023/04/19 08:35:00;;;;;;;3.90;3.50;;;14.40;98.50;;;;;;4939798;29;20537;-64
2023/04/19 08:37:25;;;;;;;3.70;2.87;;;14.20;99.00;;;;;;4956745;29;20575;-64
2023/04/19 08:39:51;;;;;;;2.20;2.00;;;14.10;99.30;;;;;;4957663;29;20475;-63
2023/04/19 08:42:18;;;;;;;3.03;2.83;;;13.90;99.10;;;;;;4957047;29;20418;-63
2023/04/19 08:44:45;;;;;;;3.07;2.87;;;13.70;99.20;;;;;;4956965;29;20610;-63
2023/04/19 08:47:10;;;;;;;4.10;3.70;;;13.60;99.50;;;;;;4957018;29;20793;-64
2023/04/19 08:49:38;;;;;;;3.67;3.37;;;13.50;99.70;;;;;;4957164;29;20423;-63
2023/04/19 08:52:05;;;;;;;3.10;2.80;;;13.60;99.80;;;;;;4957131;29;20193;-63
2023/04/19 08:54:34;;;;;;;3.33;3.13;;;13.60;99.70;;;;;;4956061;29;20482;-63
2023/04/19 08:57:00;;;;;;;3.20;3.00;;;13.60;99.90;;;;;;4957042;29;20451;-64
2023/04/19 08:59:27;;;;;;;2.87;2.67;;;13.60;99.90;;;;;;4956736;29;20388;-64
2023/04/19 09:01:55;;;;;;;3.83;3.23;;;13.70;99.90;;;;;;4956633;29;20783;-64
2023/04/19 09:04:21;;;;;;;3.53;3.20;;;13.90;99.90;;;;;;4955736;29;21021;-64
2023/04/19 09:06:47;;;;;;;3.93;2.87;;;14.10;99.90;;;;;;4956523;29;20507;-63
2023/04/19 09:09:27;;;;;;;4.10;3.10;;;14.40;99.60;;;;;;4956312;29;20912;-62
2023/04/19 09:11:53;;;;;;;3.13;2.90;;;14.50;99.40;;;;;;4956525;29;20776;-62
2023/04/19 09:14:20;;;;;;;2.90;2.70;;;14.60;98.70;;;;;;4956266;29;20469;-64
2023/04/19 09:16:46;;;;;;;4.10;3.70;;;14.60;98.60;;;;;;4961614;28;20537;-64
2023/04/19 09:19:12;;;;;;;3.87;3.57;;;14.50;98.80;;;;;;4965923;28;20433;-64
2023/04/19 09:21:38;;;;;;;3.87;3.57;;;14.40;98.90;;;;;;4956636;29;20418;-64
2023/04/19 09:24:05;;;;;;;5.10;2.43;;;14.50;98.80;;;;;;4938849;29;20815;-64
2023/04/19 09:26:31;;;;;;;2.87;2.60;;;14.50;98.20;;;;;;4956591;29;20391;-64
2023/04/19 09:29:01;;;;;;;3.40;3.10;;;14.70;98.50;;;;;;4939263;29;20784;-65
2023/04/19 09:31:32;;;;;;;3.50;3.20;;;15.00;99.70;;;;;;4955617;29;20426;-64
2023/04/19 09:34:15;;;;;;;3.20;2.97;;;15.30;99.90;;;;;;4955531;29;20467;-64
2023/04/19 09:36:41;;;;;;;5.23;3.50;;;15.50;99.70;;;;;;4939242;29;20412;-65
2023/04/19 09:39:07;;;;;;;4.90;3.13;;;15.80;99.30;;;;;;4956587;29;20401;-66
2023/04/19 09:41:33;;;;;;;4.63;3.63;;;15.90;97.30;;;;;;4955977;29;20409;-65
2023/04/19 09:44:14;;;;;;;4.53;4.13;;;16.00;96.80;;;;;;4955110;28;20260;-64
2023/04/19 09:46:41;;;;;;;4.13;3.67;;;15.80;96.80;;;;;;4956031;29;20187;-65
2023/04/19 09:49:14;;;;;;;3.43;3.20;;;15.60;97.00;;;;;;4955892;29;20387;-65
2023/04/19 09:51:40;;;;;;;3.30;3.00;;;15.30;97.20;;;;;;4955643;29;20935;-64
2023/04/19 09:54:07;;;;;;;4.90;4.40;;;15.20;97.40;;;;;;4955412;29;20440;-65
2023/04/19 09:56:34;;;;;;;3.00;2.33;;;15.20;97.30;;;;;;4938603;29;20916;-65
2023/04/19 09:59:02;;;;;;;3.70;2.97;;;15.10;97.00;;;;;;4955768;29;20813;-65
2023/04/19 10:01:28;;;;;;;5.10;3.00;;;15.00;97.60;;;;;;4955339;29;20499;-65
2023/04/19 10:03:55;;;;;;;2.80;2.60;;;15.00;98.60;;;;;;4955057;29;20418;-65
2023/04/19 10:06:21;;;;;;;3.73;3.10;;;15.00;98.10;;;;;;4955376;29;20417;-65
2023/04/19 10:08:49;;;;;;;3.17;2.80;;;15.00;98.10;;;;;;4955596;29;20431;-64
2023/04/19 10:11:15;;;;;;;3.47;2.90;;;15.00;98.30;;;;;;4955782;29;20425;-65
2023/04/19 10:13:41;;;;;;;4.80;2.73;;;15.00;98.10;;;;;;4955000;29;20449;-66
2023/04/19 10:16:07;;;;;;;3.17;2.53;;;14.90;98.50;;;;;;4954999;29;20444;-67
2023/04/19 10:18:33;;;;;;;4.77;3.87;;;14.90;99.00;;;;;;4936485;29;20498;-66
2023/04/19 10:21:05;;;;;;;5.30;3.60;;;15.00;98.70;;;;;;4952796;29;20179;-65
2023/04/19 10:23:32;;;;;;;2.90;2.70;;;15.00;99.00;;;;;;4954546;29;20384;-65
2023/04/19 10:25:58;;;;;;;4.73;3.63;;;15.10;99.20;;;;;;4955155;29;20439;-66
2023/04/19 10:28:26;;;;;;;3.23;2.97;;;15.40;98.80;;;;;;4955292;29;20383;-65
2023/04/19 10:30:55;;;;;;;3.80;3.50;;;15.50;98.80;;;;;;4955435;29;20747;-66
2023/04/19 10:33:25;;;;;;;4.80;3.90;;;15.50;99.20;;;;;;4954639;29;20386;-66
2023/04/19 10:35:55;;;;;;;4.70;3.70;;;15.50;98.90;;;;;;4954819;29;20419;-66
2023/04/19 10:38:38;;;;;;;2.77;2.53;;;15.40;98.50;;;;;;4937510;29;20430;-66
2023/04/19 10:41:10;;;;;;;3.80;3.50;;;15.20;98.90;;;;;;4954877;29;20447;-65
2023/04/19 10:43:37;;;;;;;3.40;3.10;;;15.00;99.00;;;;;;4954124;29;20427;-64
2023/04/19 10:46:06;;;;;;;4.80;3.90;;;14.90;99.20;;;;;;4955136;29;20434;-65
2023/04/19 10:48:34;;;;;;;4.27;3.87;;;14.70;99.50;;;;;;4955063;29;20385;-67
2023/04/19 10:51:14;;;;;;;4.83;3.73;;;14.50;99.90;;;;;;4955183;29;20496;-64
2023/04/19 10:53:47;;;;;;;6.27;3.73;;;14.20;99.90;;;;;;4954267;28;20435;-66
2023/04/19 10:56:17;;;;;;;3.60;2.40;;;14.00;99.90;;;;;;4956025;28;20382;-64
2023/04/19 10:59:06;;;;;;;4.60;3.30;;;13.80;99.90;;;;;;4956181;29;20399;-65
2023/04/19 11:01:49;;;;;;;6.00;5.20;;;13.70;99.90;;;;;;4957467;29;20375;-65
2023/04/19 11:04:26;;;;;;;3.47;2.73;;;13.70;99.90;;;;;;4957017;29;20415;-65
2023/04/19 11:06:54;;;;;;;4.00;3.70;;;13.70;99.90;;;;;;4956570;29;20931;-67
2023/04/19 11:09:24;;;;;;;5.30;4.30;;;13.50;99.90;;;;;;4958295;29;20420;-66
2023/04/19 11:11:51;;;;;;;4.33;4.00;;;13.50;99.90;;;;;;4956336;29;20412;-64
2023/04/19 11:14:20;;;;;;;3.27;3.00;;;13.40;99.90;;;;;;4957939;29;20463;-63
2023/04/19 11:16:45;;;;;;;3.40;3.10;;;13.30;99.90;;;;;;4960719;28;20414;-66
2023/04/19 11:19:15;;;;;;;6.27;3.60;;;13.20;99.90;;;;;;4978192;28;20524;-68
2023/04/19 11:21:40;;;;;;;3.20;3.00;;;13.10;99.90;;;;;;4959317;28;20176;-67
2023/04/19 11:24:10;;;;;;;4.47;4.03;;;12.90;99.90;;;;;;4958281;29;20450;-68
2023/04/19 11:26:37;;;;;;;4.13;3.40;;;12.70;99.90;;;;;;4958853;29;20176;-73
2023/04/19 11:29:05;;;;;;;3.60;3.30;;;12.60;99.90;;;;;;4958483;29;20474;-65
2023/04/19 11:31:33;;;;;;;4.83;3.50;;;12.50;99.90;;;;;;4957939;29;20897;-68
2023/04/19 11:33:59;;;;;;;5.23;3.07;;;12.40;99.90;;;;;;4957456;29;20446;-65
2023/04/19 11:36:25;;;;;;;4.03;3.60;;;12.30;99.90;;;;;;4958305;29;20472;-65
2023/04/19 11:38:52;;;;;;;3.97;3.67;;;12.20;99.90;;;;;;4958614;29;20863;-65
2023/04/19 11:41:18;;;;;;;5.73;4.37;;;12.20;99.90;;;;;;4958340;29;20184;-65
2023/04/19 11:43:45;;;;;;;5.70;5.20;;;12.10;99.90;;;;;;4957961;29;20923;-65
2023/04/19 11:46:12;;;;;;;4.93;3.87;;;12.00;99.90;;;;;;4940940;29;20985;-65
2023/04/19 11:48:51;;;;;;;3.80;3.40;;;11.80;99.90;;;;;;4957767;29;20439;-65
2023/04/19 11:51:17;;;;;;;4.87;4.47;;;11.70;99.90;;;;;;4965535;28;20516;-66
2023/04/19 11:53:43;;;;;;;4.93;4.40;;;11.60;99.90;;;;;;4976842;28;20545;-66
2023/04/19 11:56:09;;;;;;;7.80;5.00;;;11.50;99.90;;;;;;4977178;28;20197;-65
2023/04/19 11:58:43;;;;;;;4.77;4.23;;;11.40;99.90;;;;;;4959761;28;20178;-66
2023/04/19 12:01:15;;;;;;;4.80;4.03;;;11.30;99.90;;;;;;4977421;28;20514;-66
2023/04/19 12:03:46;;;;;;;5.78;5.28;;;11.30;99.90;;;;;;4976877;28;20431;-67
2023/04/19 12:06:38;;;;;;;6.13;5.35;;;11.20;99.90;;;;;;4977174;28;20599;-67
2023/04/19 12:09:08;;;;;;;8.45;5.38;;;11.10;99.90;;;;;;4973784;28;20209;-69
2023/04/19 12:11:44;;;;;;;6.38;4.80;;;11.00;99.90;;;;;;4977321;28;20213;-67
2023/04/19 12:14:14;;;;;;;7.80;6.78;;;11.00;99.90;;;;;;4976958;28;20290;-67
2023/04/19 12:16:41;;;;;;;8.45;6.03;;;10.90;99.90;;;;;;4977606;28;20180;-67
2023/04/19 12:19:18;;;;;;;7.72;4.90;;;10.80;99.90;;;;;;4976350;28;20574;-67
2023/04/19 12:21:45;;;;;;;8.30;5.88;;;10.70;99.90;;;;;;4976579;28;20575;-67
2023/04/19 12:24:13;;;;;;;7.40;5.70;;;10.60;99.90;;;;;;4976486;28;20655;-67
2023/04/19 12:26:59;;;;;;;4.75;4.35;;;10.50;99.90;;;;;;4976995;28;20255;-66
2023/04/19 12:29:25;;;;;;;5.85;4.70;;;10.50;99.90;;;;;;4973247;28;20186;-67
2023/04/19 12:31:51;;;;;;;6.15;4.80;;;10.40;99.90;;;;;;4967542;28;20193;-69
2023/04/19 12:34:16;;;;;;;4.70;4.27;;;10.40;99.90;;;;;;4941631;29;20213;-70
2023/04/19 12:36:42;;;;;;;6.53;5.90;;;10.40;99.90;;;;;;4954021;28;20175;-69
2023/04/19 12:39:08;;;;;;;7.43;4.10;;;10.40;99.90;;;;;;4932138;29;20268;-67
2023/04/19 12:41:33;;;;;;;4.60;4.20;;;10.40;99.90;;;;;;4952155;28;20252;-69
2023/04/19 12:43:59;;;;;;;11.60;5.70;;;10.40;99.90;;;;;;4964459;28;20180;-68
2023/04/19 12:46:24;;;;;;;7.40;5.80;;;10.40;99.90;;;;;;4949978;28;20272;-67
2023/04/19 12:48:50;;;;;;;5.80;4.40;;;10.40;99.90;;;;;;4952779;28;20188;-75
2023/04/19 12:51:16;;;;;;;6.93;5.07;;;10.40;99.90;;;;;;4937749;29;20216;-64
2023/04/19 12:53:49;;;;;;;5.87;3.70;;;10.40;99.90;;;;;;4953709;28;20223;-64
2023/04/19 12:56:16;;;;;;;5.80;4.40;;;10.50;99.90;;;;;;4957156;29;20165;-65
2023/04/19 12:58:42;;;;;;;5.90;4.38;;;10.40;99.90;;;;;;4955411;29;20177;-64
2023/04/19 13:01:07;;;;;;;4.63;4.23;;;10.40;99.90;;;;;;4956607;29;20203;-64
2023/04/19 13:03:35;;;;;;;4.30;3.87;;;10.40;99.90;;;;;;4956207;29;20177;-65
2023/04/19 13:06:03;;;;;;;6.13;5.53;;;10.40;99.90;;;;;;4956149;28;20335;-64
2023/04/19 13:08:29;;;;;;;3.35;3.15;;;10.40;99.90;;;;;;4957594;29;20185;-63
2023/04/19 13:10:55;;;;;;;4.90;4.47;;;10.40;99.90;;;;;;4958445;29;20260;-64
2023/04/19 13:13:21;;;;;;;3.00;2.80;;;10.40;99.90;;;;;;4953747;29;20632;-63
2023/04/19 13:15:46;;;;;;;4.50;3.70;;;10.40;99.90;;;;;;4942036;29;21031;-63
2023/04/19 13:18:12;;;;;;;3.60;3.30;;;10.40;99.90;;;;;;4955293;28;20396;-63
2023/04/19 13:20:38;;;;;;;3.40;3.20;;;10.40;99.90;;;;;;4959962;29;20174;-64
2023/04/19 13:23:03;;;;;;;4.20;3.83;;;10.40;99.90;;;;;;4957247;29;21410;-63
2023/04/19 13:25:29;;;;;;;4.07;2.83;;;10.50;99.90;;;;;;4951668;28;20257;-63
2023/04/19 13:27:54;;;;;;;3.60;3.20;;;10.60;99.90;;;;;;4955579;29;20182;-63
2023/04/19 13:30:20;;;;;;;3.70;3.07;;;10.70;99.90;;;;;;4939080;29;20184;-64
2023/04/19 13:32:45;;;;;;;3.53;3.13;;;10.80;99.90;;;;;;4928049;29;20598;-63
2023/04/19 13:35:11;;;;;;;4.97;3.37;;;10.80;99.90;;;;;;4945014;29;20221;-63
2023/04/19 13:37:39;;;;;;;3.43;3.17;;;10.90;99.90;;;;;;4946388;29;20189;-63
2023/04/19 13:40:05;;;;;;;3.20;3.00;;;10.90;99.90;;;;;;4945988;29;20194;-64
2023/04/19 13:42:31;;;;;;;3.67;3.38;;;10.90;99.90;;;;;;4946590;29;20191;-62
2023/04/19 13:44:56;;;;;;;4.33;4.00;;;11.00;99.90;;;;;;4950868;28;20211;-64
2023/04/19 13:47:22;;;;;;;3.67;3.37;;;11.10;99.90;;;;;;4955823;29;20186;-64
2023/04/19 13:49:51;;;;;;;4.53;4.07;;;11.10;99.90;;;;;;4956738;29;20549;-64
2023/04/19 13:52:20;;;;;;;3.00;2.78;;;11.10;99.90;;;;;;4949510;29;20261;-64
2023/04/19 13:54:46;;;;;;;4.05;3.75;;;11.10;99.90;;;;;;4938247;29;20214;-64
2023/04/19 13:57:12;;;;;;;3.97;3.40;;;11.10;99.90;;;;;;4939191;29;20232;-63
2023/04/19 13:59:37;;;;;;;2.77;2.57;;;11.20;99.90;;;;;;4945313;29;20182;-62
2023/04/19 14:02:03;;;;;;;3.67;3.37;;;11.20;99.90;;;;;;4952427;29;20174;-63
2023/04/19 14:04:29;;;;;;;4.90;4.50;;;11.30;99.90;;;;;;4942095;29;20199;-64
2023/04/19 14:06:55;;;;;;;5.00;4.53;;;11.50;99.90;;;;;;4950640;29;20490;-63
2023/04/19 14:09:21;;;;;;;3.10;2.83;;;11.80;99.90;;;;;;4954813;29;20430;-64
2023/04/19 14:11:48;;;;;;;3.20;2.90;;;12.10;99.90;;;;;;4954942;29;20511;-63
2023/04/19 14:14:14;;;;;;;3.47;3.17;;;12.30;99.90;;;;;;4936232;29;20211;-64
2023/04/19 14:16:40;;;;;;;5.17;3.27;;;12.50;99.90;;;;;;4944928;29;20428;-64
2023/04/19 14:19:06;;;;;;;2.77;2.60;;;12.70;99.90;;;;;;4949939;29;20784;-63
2023/04/19 14:21:31;;;;;;;4.13;3.77;;;12.80;99.90;;;;;;4943707;29;20503;-64
2023/04/19 14:23:57;;;;;;;4.80;3.77;;;13.00;99.90;;;;;;4951064;28;20973;-64
2023/04/19 14:26:23;;;;;;;6.13;4.37;;;13.00;99.90;;;;;;4955123;29;20180;-64
2023/04/19 14:28:49;;;;;;;3.60;2.73;;;13.20;99.90;;;;;;4938810;29;20404;-63
2023/04/19 14:31:14;;;;;;;3.53;3.23;;;13.30;99.90;;;;;;4949659;28;20641;-64
2023/04/19 14:33:40;;;;;;;4.60;4.27;;;13.50;99.90;;;;;;4953728;29;20650;-64
2023/04/19 14:36:06;;;;;;;3.10;2.90;;;13.50;99.90;;;;;;4934109;29;20683;-64
2023/04/19 14:38:32;;;;;;;3.63;3.33;;;13.70;99.90;;;;;;4953687;29;20798;-65
2023/04/19 14:40:58;;;;;;;3.30;2.90;;;13.90;99.90;;;;;;4955019;29;20177;-64
2023/04/19 14:43:24;;;;;;;2.90;2.70;;;14.10;99.90;;;;;;4952817;29;20784;-68
2023/04/19 14:45:50;;;;;;;4.03;3.73;;;14.10;99.90;;;;;;4945575;29;20455;-66
2023/04/19 14:48:16;;;;;;;3.93;3.63;;;14.10;99.90;;;;;;4950291;28;20572;-66
2023/04/19 14:50:42;;;;;;;6.27;3.20;;;13.90;99.90;;;;;;4954264;29;20489;-65
2023/04/19 14:53:08;;;;;;;4.37;3.83;;;13.80;99.90;;;;;;4951157;29;20550;-66
2023/04/19 14:55:35;;;;;;;4.50;3.80;;;13.70;99.90;;;;;;4951196;29;20253;-63
2023/04/19 14:58:01;;;;;;;3.10;2.80;;;13.60;99.90;;;;;;4954121;29;20444;-65
2023/04/19 15:00:27;;;;;;;4.43;4.00;;;13.50;99.90;;;;;;4954349;29;20426;-65
2023/04/19 15:02:52;;;;;;;3.80;3.50;;;13.50;99.90;;;;;;4954104;29;20279;-64
2023/04/19 15:05:20;;;;;;;4.50;3.50;;;13.40;99.90;;;;;;4953908;28;20476;-64
2023/04/19 15:07:46;;;;;;;4.27;3.87;;;13.40;99.90;;;;;;4952261;29;20552;-64
2023/04/19 15:10:11;;;;;;;3.07;2.87;;;13.40;99.90;;;;;;4950944;29;20391;-63
2023/04/19 15:12:37;;;;;;;4.03;3.37;;;13.40;99.90;;;;;;4954657;29;20214;-64
2023/04/19 15:15:04;;;;;;;6.10;3.70;;;13.50;99.90;;;;;;4953605;28;20271;-64
2023/04/19 15:17:29;;;;;;;3.30;3.00;;;13.60;99.90;;;;;;4950082;29;20532;-65
2023/04/19 15:19:55;;;;;;;4.80;3.23;;;13.70;99.90;;;;;;4946125;29;20426;-65
2023/04/19 15:22:20;;;;;;;2.73;2.53;;;13.70;99.90;;;;;;4954626;29;20180;-64
2023/04/19 15:24:46;;;;;;;6.23;5.63;;;13.80;99.90;;;;;;4950904;28;20710;-64
2023/04/19 15:27:11;;;;;;;4.13;3.40;;;13.80;99.90;;;;;;4955443;28;20232;-64
2023/04/19 15:29:38;;;;;;;3.50;3.07;;;13.80;99.90;;;;;;4949601;29;20225;-63
2023/04/19 15:32:04;;;;;;;3.73;3.43;;;13.80;99.90;;;;;;4938845;29;20606;-64
2023/04/19 15:34:29;;;;;;;4.53;3.70;;;13.80;99.90;;;;;;4953621;28;20473;-65
2023/04/19 15:36:56;;;;;;;4.33;3.93;;;13.70;99.90;;;;;;4937537;29;20420;-63
2023/04/19 15:39:21;;;;;;;3.53;3.23;;;13.60;99.90;;;;;;4954739;29;20168;-63
2023/04/19 15:41:47;;;;;;;3.17;2.97;;;13.60;99.90;;;;;;4937286;29;20422;-64
2023/04/19 15:44:13;;;;;;;3.80;3.30;;;13.40;99.90;;;;;;4925527;29;20201;-63
2023/04/19 15:46:38;;;;;;;3.60;3.30;;;13.20;99.90;;;;;;4941750;29;20432;-65
2023/04/19 15:49:04;;;;;;;3.70;3.33;;;13.10;99.90;;;;;;4957952;29;20177;-65
2023/04/19 15:51:30;;;;;;;3.50;3.23;;;12.90;99.90;;;;;;4958164;29;20168;-63
2023/04/19 15:53:56;;;;;;;4.07;3.77;;;12.80;99.90;;;;;;4940013;28;20665;-63
2023/04/19 15:56:22;;;;;;;2.70;2.50;;;12.70;99.90;;;;;;4958139;29;20411;-63
2023/04/19 15:58:47;;;;;;;4.43;2.70;;;12.70;99.90;;;;;;4943167;29;20691;-65
2023/04/19 16:01:13;;;;;;;3.60;3.30;;;12.80;99.90;;;;;;4957326;28;20972;-64
2023/04/19 16:03:39;;;;;;;3.93;3.30;;;12.80;99.90;;;;;;4962056;28;20230;-64
2023/04/19 16:06:05;;;;;;;2.73;2.50;;;12.90;99.90;;;;;;4977542;28;20729;-64
2023/04/19 16:08:31;;;;;;;3.30;3.00;;;13.00;99.90;;;;;;4963509;28;20512;-64
2023/04/19 16:10:57;;;;;;;3.23;2.93;;;13.00;99.90;;;;;;4951223;29;20923;-64
2023/04/19 16:13:22;;;;;;;3.83;3.50;;;13.10;99.90;;;;;;4956729;29;20634;-62
2023/04/19 16:15:48;;;;;;;3.00;2.80;;;13.10;99.90;;;;;;4957138;29;20219;-63
2023/04/19 16:18:14;;;;;;;4.10;3.70;;;13.20;99.90;;;;;;4955984;29;20185;-64
2023/04/19 16:20:40;;;;;;;14.93;10.67;;;13.20;99.90;;;;;;4957800;29;20183;-63
2023/04/19 16:23:06;;;;;;;5.93;4.70;;;13.20;99.90;;;;;;4957313;29;20176;-64
2023/04/19 16:25:32;;;;;;;4.70;4.30;;;13.20;99.90;;;;;;4924329;29;20455;-64
2023/04/19 16:27:59;;;;;;;6.03;4.13;;;13.20;99.90;;;;;;4938541;29;20387;-64
2023/04/19 16:30:26;;;;;;;3.27;2.97;;;13.10;99.90;;;;;;4938304;29;20429;-65
2023/04/19 16:32:55;;;;;;;3.67;3.23;;;12.90;99.90;;;;;;4945556;29;20430;-64
2023/04/19 16:35:21;;;;;;;3.13;2.80;;;12.70;99.90;;;;;;4956749;28;20925;-63
2023/04/19 16:37:47;;;;;;;3.37;3.07;;;12.60;99.90;;;;;;4957105;29;20460;-66
2023/04/19 16:40:13;;;;;;;3.03;2.10;;;12.60;99.90;;;;;;4957516;29;20458;-66
2023/04/19 16:42:39;;;;;;;4.80;2.97;;;12.60;99.90;;;;;;4939262;29;20278;-65
2023/04/19 16:45:06;;;;;;;3.37;3.07;;;12.60;99.90;;;;;;4937522;29;20208;-65
2023/04/19 16:47:32;;;;;;;4.03;3.00;;;12.50;99.90;;;;;;4938113;29;20416;-65
2023/04/19 16:49:59;;;;;;;3.97;3.57;;;12.40;99.90;;;;;;4937720;29;20426;-65